createdAt,value
2019-04-23T00:01:58.775Z,4.20
2019-04-23T00:04:23.717Z,4.50
2019-04-23T00:07:13.027Z,4.30
2019-04-23T00:09:36.864Z,4.97
2019-04-23T00:11:59.894Z,4.60
2019-04-23T00:14:40.406Z,4.60
2019-04-23T00:16:59.400Z,4.13
2019-04-23T00:19:30.990Z,5.00
2019-04-23T00:22:09.130Z,5.23
2019-04-23T00:29:53.811Z,5.17
2019-04-23T00:32:25.162Z,4.93
2019-04-23T00:34:55.871Z,4.50
2019-04-23T00:37:28.402Z,4.43
2019-04-23T00:39:52.333Z,4.73
2019-04-23T00:44:51.583Z,4.30
2019-04-23T00:47:25.343Z,4.30
2019-04-23T00:50:07.724Z,5.20
2019-04-23T00:52:26.382Z,4.60
2019-04-23T00:55:07.137Z,4.37
2019-04-23T00:57:30.572Z,4.90
2019-04-23T01:00:03.436Z,6.33
2019-04-23T01:02:32.889Z,8.13
2019-04-23T01:05:05.174Z,104.03
2019-04-23T01:07:33.493Z,32.40
2019-04-23T01:10:08.762Z,7.90
2019-04-23T01:12:46.440Z,6.70
2019-04-23T01:15:15.699Z,6.00
2019-04-23T01:17:47.529Z,7.20
2019-04-23T01:20:37.324Z,5.60
2019-04-23T01:22:35.891Z,5.80
2019-04-23T01:25:24.992Z,6.00
2019-04-23T01:28:15.966Z,6.47
2019-04-23T01:30:49.221Z,5.43
2019-04-23T01:33:29.490Z,6.20
2019-04-23T01:36:04.595Z,5.90
2019-04-23T01:38:18.659Z,6.10
2019-04-23T01:40:45.860Z,6.77
2019-04-23T01:43:28.752Z,6.27
2019-04-23T01:45:50.267Z,6.37
2019-04-23T01:48:19.980Z,6.70
2019-04-23T01:50:54.292Z,7.00
2019-04-23T01:53:27.197Z,6.67
2019-04-23T01:56:01.240Z,7.70
2019-04-23T02:01:00.858Z,6.70
2019-04-23T02:03:36.543Z,6.37
2019-04-23T02:06:00.304Z,8.20
2019-04-23T02:08:32.323Z,8.03
2019-04-23T02:11:06.797Z,8.20
2019-04-23T02:13:51.492Z,7.10
2019-04-23T02:15:56.957Z,7.27
2019-04-23T02:18:35.904Z,7.80
2019-04-23T02:21:05.600Z,8.20
2019-04-23T02:23:43.943Z,10.10
2019-04-23T02:26:13.549Z,9.40
2019-04-23T02:31:43.748Z,8.33
2019-04-23T02:39:01.038Z,7.27
2019-04-23T02:44:07.006Z,7.60
2019-04-23T02:46:31.891Z,8.17
2019-04-23T02:49:07.088Z,9.00
2019-04-23T02:56:37.949Z,8.50
2019-04-23T02:59:10.214Z,10.30
2019-04-23T03:04:10.275Z,9.97
2019-04-23T03:06:38.455Z,9.33
2019-04-23T03:11:45.666Z,9.50
2019-04-23T03:14:25.046Z,9.40
2019-04-23T03:24:47.581Z,12.87
2019-04-23T03:29:59.707Z,10.80
2019-04-23T03:37:26.462Z,9.93
2019-04-23T03:39:56.572Z,9.33
2019-04-23T03:42:17.316Z,9.97
2019-04-23T03:44:56.245Z,11.17
2019-04-23T03:47:24.895Z,13.10
2019-04-23T03:52:31.383Z,10.30
2019-04-23T03:54:49.017Z,10.70
2019-04-23T04:00:03.419Z,11.23
2019-04-23T04:02:42.120Z,11.97
2019-04-23T04:07:40.344Z,12.90
2019-04-23T04:12:34.883Z,11.10
2019-04-23T04:15:03.871Z,11.43
2019-04-23T04:17:44.719Z,12.33
2019-04-23T04:20:19.619Z,11.93
2019-04-23T04:22:54.471Z,11.57
2019-04-23T04:25:21.270Z,12.37
2019-04-23T04:30:10.741Z,10.63
2019-04-23T04:32:54.549Z,13.87
2019-04-23T04:35:22.182Z,15.27
2019-04-23T04:40:18.168Z,13.23
2019-04-23T04:42:59.861Z,12.70
2019-04-23T04:50:35.245Z,13.20
2019-04-23T04:53:12.475Z,15.40
2019-04-23T04:55:23.597Z,15.10
2019-04-23T05:10:32.477Z,16.43
2019-04-23T05:13:15.645Z,16.30
2019-04-23T05:15:28.386Z,15.87
2019-04-23T05:20:56.484Z,15.93
2019-04-23T05:23:22.531Z,34.10
2019-04-23T05:28:18.763Z,17.07
2019-04-23T05:33:24.783Z,16.07
2019-04-23T05:36:13.060Z,17.87
2019-04-23T05:38:37.155Z,19.23
2019-04-23T05:41:06.703Z,16.67
2019-04-23T05:43:27.304Z,15.73
2019-04-23T05:45:59.322Z,15.03
2019-04-23T05:48:49.169Z,15.43
2019-04-23T05:51:04.323Z,15.20
2019-04-23T05:53:33.911Z,14.90
2019-04-23T05:56:09.489Z,16.73
2019-04-23T05:58:40.384Z,17.23
2019-04-23T06:01:37.946Z,17.20
2019-04-23T06:03:52.697Z,16.93
2019-04-23T06:06:20.151Z,16.80
2019-04-23T06:08:46.011Z,16.40
2019-04-23T06:11:30.820Z,14.37
2019-04-23T06:14:00.248Z,16.50
2019-04-23T06:16:22.135Z,17.97
2019-04-23T06:18:57.218Z,16.00
2019-04-23T06:21:26.828Z,16.70
2019-04-23T06:23:58.536Z,17.50
2019-04-23T06:26:35.978Z,15.30
2019-04-23T06:28:57.420Z,19.30
2019-04-23T06:31:31.241Z,17.90
2019-04-23T06:34:03.396Z,16.90
2019-04-23T06:36:32.686Z,17.57
2019-04-23T06:41:37.579Z,19.57
2019-04-23T06:44:17.188Z,17.87
2019-04-23T06:46:48.794Z,16.60
2019-04-23T06:49:09.434Z,15.20
2019-04-23T06:51:45.932Z,14.87
2019-04-23T06:54:12.336Z,15.00
2019-04-23T06:56:43.649Z,16.30
2019-04-23T06:59:12.363Z,17.60
2019-04-23T07:01:51.590Z,15.40
2019-04-23T07:06:46.905Z,17.80
2019-04-23T07:11:42.846Z,17.13
2019-04-23T07:14:24.443Z,19.23
2019-04-23T07:16:51.255Z,18.10
2019-04-23T07:19:26.915Z,16.30
2019-04-23T07:21:54.136Z,17.43
2019-04-23T07:24:16.957Z,16.63
2019-04-23T07:26:45.262Z,15.97
2019-04-23T07:29:27.571Z,19.37
2019-04-23T07:31:57.468Z,16.47
2019-04-23T07:34:23.193Z,16.57
2019-04-23T07:36:55.432Z,16.00
2019-04-23T07:39:27.521Z,16.23
2019-04-23T07:47:47.440Z,15.90
2019-04-23T07:50:23.422Z,18.93
2019-04-23T07:52:51.545Z,19.73
2019-04-23T07:55:32.258Z,19.00
2019-04-23T07:57:49.578Z,19.30
2019-04-23T08:00:18.179Z,16.90
2019-04-23T08:02:47.694Z,17.83
2019-04-23T08:05:22.608Z,17.70
2019-04-23T08:07:54.138Z,17.37
2019-04-23T08:10:23.681Z,15.33
2019-04-23T08:12:55.481Z,19.27
2019-04-23T08:15:28.132Z,20.77
2019-04-23T08:18:04.816Z,18.60
2019-04-23T08:20:33.460Z,19.93
2019-04-23T08:23:01.966Z,19.13
2019-04-23T08:25:56.332Z,18.63
2019-04-23T08:28:25.872Z,17.13
2019-04-23T08:30:49.934Z,20.60
2019-04-23T08:33:17.456Z,20.60
2019-04-23T08:35:55.273Z,16.97
2019-04-23T08:38:26.106Z,16.97
2019-04-23T08:45:57.861Z,18.60
2019-04-23T08:48:32.803Z,16.57
2019-04-23T08:51:31.890Z,16.80
2019-04-23T08:56:02.010Z,17.30
2019-04-23T09:03:34.489Z,19.67
2019-04-23T09:08:38.993Z,21.17
2019-04-23T09:13:53.525Z,15.90
2019-04-23T09:16:08.821Z,19.00
2019-04-23T09:19:04.000Z,20.27
2019-04-23T09:21:15.799Z,20.80
2019-04-23T09:23:46.858Z,21.20
2019-04-23T09:31:30.444Z,21.47
2019-04-23T09:33:58.358Z,21.27
2019-04-23T09:36:34.031Z,19.90
2019-04-23T09:39:12.728Z,20.90
2019-04-23T09:41:48.199Z,18.50
2019-04-23T09:44:47.235Z,19.47
2019-04-23T09:47:24.535Z,18.73
2019-04-23T09:49:50.104Z,18.03
2019-04-23T09:52:21.785Z,16.70
2019-04-23T09:55:01.668Z,14.70
2019-04-23T09:57:16.029Z,10.80
2019-04-23T09:59:50.624Z,11.20
2019-04-23T10:02:17.545Z,8.83
2019-04-23T10:04:39.874Z,8.27
2019-04-23T10:07:11.334Z,9.00
2019-04-23T10:09:27.655Z,7.67
2019-04-23T10:11:56.868Z,7.97
2019-04-23T10:14:26.267Z,8.30
2019-04-23T10:16:57.924Z,7.90
2019-04-23T10:19:26.788Z,8.63
2019-04-23T10:21:57.416Z,7.87
2019-04-23T10:24:27.633Z,8.20
2019-04-23T10:26:57.803Z,8.20
2019-04-23T10:29:34.143Z,8.07
2019-04-23T10:32:03.886Z,8.17
2019-04-23T10:34:44.096Z,6.53
2019-04-23T10:37:05.198Z,8.23
2019-04-23T10:39:37.832Z,6.83
2019-04-23T10:42:05.950Z,7.37
2019-04-23T10:44:45.885Z,7.80
2019-04-23T10:48:03.755Z,7.90
2019-04-23T10:50:44.480Z,9.20
2019-04-23T10:53:13.254Z,7.80
2019-04-23T10:55:43.433Z,8.50
2019-04-23T10:58:12.443Z,8.47
2019-04-23T11:00:35.836Z,7.70
2019-04-23T11:03:20.417Z,7.97
2019-04-23T11:08:15.694Z,8.10
2019-04-23T11:10:44.347Z,7.40
2019-04-23T11:13:19.145Z,7.10
2019-04-23T11:16:11.032Z,7.80
2019-04-23T11:18:10.597Z,7.63
2019-04-23T11:23:27.358Z,7.50
2019-04-23T11:25:48.483Z,7.17
2019-04-23T11:30:45.049Z,6.33
2019-04-23T11:33:29.992Z,8.17
2019-04-23T11:38:48.642Z,7.50
2019-04-23T11:41:00.402Z,7.03
2019-04-23T11:43:33.720Z,7.00
2019-04-23T11:46:06.328Z,6.53
2019-04-23T11:48:46.415Z,8.13
2019-04-23T11:51:38.769Z,7.50
2019-04-23T11:53:42.493Z,7.13
2019-04-23T11:58:37.579Z,6.80
2019-04-23T12:04:00.694Z,7.23
2019-04-23T12:06:46.006Z,6.90
2019-04-23T12:09:08.044Z,7.40
2019-04-23T12:22:08.817Z,6.90
2019-04-23T12:27:16.796Z,5.70
2019-04-23T12:29:38.777Z,5.60
2019-04-23T12:34:59.617Z,6.00
2019-04-23T12:37:49.287Z,5.20
2019-04-23T12:45:14.278Z,6.03
2019-04-23T12:50:38.322Z,4.63
2019-04-23T12:52:41.235Z,6.50
2019-04-23T12:57:42.333Z,4.97
2019-04-23T13:00:18.044Z,5.80
2019-04-23T13:05:14.436Z,6.00
2019-04-23T13:07:43.747Z,5.80
2019-04-23T13:10:22.593Z,7.03
2019-04-23T13:17:54.098Z,6.60
2019-04-23T13:20:23.618Z,6.10
2019-04-23T13:36:00.993Z,5.97
2019-04-23T13:38:17.490Z,5.47
2019-04-23T13:40:50.545Z,5.60
2019-04-23T13:43:19.512Z,5.33
2019-04-23T13:46:00.000Z,4.80
2019-04-23T13:48:17.492Z,5.07
2019-04-23T13:51:09.798Z,5.70
2019-04-23T13:53:40.783Z,4.10
2019-04-23T13:55:47.090Z,5.40
2019-04-23T13:58:23.082Z,5.03
2019-04-23T14:03:30.723Z,5.63
2019-04-23T14:08:50.449Z,5.70
2019-04-23T14:11:19.768Z,5.93
2019-04-23T14:14:00.974Z,5.77
2019-04-23T14:36:37.196Z,4.73
2019-04-23T14:38:49.514Z,7.43
2019-04-23T14:44:00.689Z,9.03
2019-04-23T14:48:56.702Z,11.80
2019-04-23T14:51:32.027Z,10.37
2019-04-23T14:53:53.711Z,13.43
2019-04-23T14:59:04.484Z,16.03
2019-04-23T15:03:57.866Z,18.97
2019-04-23T15:06:37.844Z,15.70
2019-04-23T15:09:19.221Z,14.50
2019-04-23T15:11:45.128Z,16.97
2019-04-23T15:14:06.883Z,16.73
2019-04-23T15:16:39.798Z,15.67
2019-04-23T15:19:37.910Z,15.87
2019-04-23T15:29:12.923Z,10.53
2019-04-23T15:32:03.064Z,7.53
2019-04-23T15:34:23.577Z,6.80
2019-04-23T15:37:13.374Z,6.13
2019-04-23T15:39:31.361Z,6.50
2019-04-23T15:42:14.477Z,5.87
2019-04-23T15:44:39.468Z,5.60
2019-04-23T15:47:12.635Z,6.00
2019-04-23T15:49:35.667Z,5.57
2019-04-23T15:52:10.705Z,4.60
2019-04-23T15:54:54.680Z,4.23
2019-04-23T15:57:12.401Z,3.70
2019-04-23T15:59:40.872Z,4.20
2019-04-23T16:01:43.987Z,3.60
2019-04-23T16:04:16.855Z,3.87
2019-04-23T16:06:45.821Z,3.53
2019-04-23T16:09:50.855Z,3.20
2019-04-23T16:12:04.702Z,3.37
2019-04-23T16:14:56.924Z,3.73
2019-04-23T16:22:35.585Z,3.07
2019-04-23T16:25:08.066Z,3.40
2019-04-23T16:27:31.318Z,3.13
2019-04-23T16:35:32.878Z,2.90
2019-04-23T16:38:10.285Z,3.03
2019-04-23T16:40:35.033Z,2.80
2019-04-23T16:43:05.109Z,2.73
2019-04-23T16:45:45.724Z,4.00
2019-04-23T16:48:09.246Z,4.20
2019-04-23T16:50:41.344Z,4.33
2019-04-23T16:53:09.475Z,4.17
2019-04-23T16:55:37.831Z,4.13
2019-04-23T16:58:14.442Z,3.90
2019-04-23T17:00:45.774Z,3.70
2019-04-23T17:03:19.352Z,3.43
2019-04-23T17:05:47.346Z,3.33
2019-04-23T17:10:42.853Z,2.20
2019-04-23T17:15:53.406Z,2.70
2019-04-23T17:18:17.365Z,1.80
2019-04-23T17:20:46.913Z,1.50
2019-04-23T17:23:27.073Z,2.10
2019-04-23T17:25:48.372Z,2.07
2019-04-23T17:28:18.388Z,2.37
2019-04-23T17:30:51.915Z,2.03
2019-04-23T17:36:08.045Z,2.20
2019-04-23T17:38:42.643Z,4.10
2019-04-23T17:41:19.408Z,1.80
2019-04-23T17:44:01.392Z,2.23
2019-04-23T17:46:27.337Z,2.07
2019-04-23T17:48:55.201Z,1.70
2019-04-23T17:51:26.545Z,2.13
2019-04-23T17:54:07.265Z,1.77
2019-04-23T17:56:35.887Z,4.43
2019-04-23T17:59:09.247Z,6.90
2019-04-23T18:01:35.804Z,6.37
2019-04-23T18:06:50.794Z,5.43
2019-04-23T18:16:41.678Z,4.20
2019-04-23T18:21:44.605Z,4.80
2019-04-23T18:24:27.504Z,3.73
2019-04-23T18:26:55.096Z,4.30
2019-04-23T18:32:11.350Z,3.70
2019-04-23T18:34:56.806Z,4.17
2019-04-23T18:37:13.066Z,3.80
2019-04-23T18:39:43.742Z,4.67
2019-04-23T18:42:21.439Z,4.93
2019-04-23T18:44:43.489Z,4.43
2019-04-23T18:47:19.404Z,5.27
2019-04-23T18:49:55.045Z,4.70
2019-04-23T18:54:48.061Z,4.97
2019-04-23T18:57:13.344Z,4.70
2019-04-23T19:02:51.841Z,4.23
2019-04-23T19:08:10.672Z,4.97
2019-04-23T19:10:51.208Z,4.03
2019-04-23T19:13:35.165Z,4.70
2019-04-23T19:15:50.630Z,4.50
2019-04-23T19:18:26.116Z,4.90
2019-04-23T19:21:00.956Z,3.37
2019-04-23T19:23:32.662Z,3.30
2019-04-23T19:25:58.627Z,2.77
2019-04-23T19:28:41.407Z,3.60
2019-04-23T19:31:01.910Z,3.20
2019-04-23T19:33:53.680Z,2.53
2019-04-23T19:36:03.646Z,3.13
2019-04-23T19:38:35.117Z,2.30
2019-04-23T19:41:25.498Z,3.03
2019-04-23T19:43:54.367Z,2.53
2019-04-23T19:46:23.968Z,2.10
2019-04-23T19:48:48.132Z,2.10
2019-04-23T19:51:17.262Z,2.60
2019-04-23T19:56:22.032Z,2.80
2019-04-23T19:58:54.249Z,2.57
2019-04-23T20:01:23.744Z,3.13
2019-04-23T20:03:53.664Z,3.13
2019-04-23T20:11:26.368Z,2.30
2019-04-23T20:13:57.501Z,2.03
2019-04-23T20:16:37.048Z,1.80
2019-04-23T20:21:28.335Z,2.40
2019-04-23T20:32:15.344Z,2.30
2019-04-23T20:36:58.287Z,2.77
2019-04-23T20:42:08.981Z,4.60
2019-04-23T20:57:16.343Z,4.43
2019-04-23T20:59:43.784Z,4.43
2019-04-23T21:02:42.084Z,5.20
2019-04-23T21:05:08.719Z,5.07
2019-04-23T21:07:40.674Z,5.40
2019-04-23T21:12:50.997Z,4.33
2019-04-23T21:15:23.724Z,5.13
2019-04-23T21:17:43.730Z,4.50
2019-04-23T21:22:41.604Z,4.80
2019-04-23T21:25:27.294Z,4.77
2019-04-23T21:27:46.746Z,4.70
2019-04-23T21:30:10.833Z,4.83
2019-04-23T21:32:55.734Z,4.97
2019-04-23T21:35:33.635Z,5.67
2019-04-23T21:38:10.412Z,6.27
2019-04-23T21:46:00.096Z,5.47
2019-04-23T21:48:15.554Z,6.53
2019-04-23T21:50:54.335Z,5.67
2019-04-23T21:53:14.791Z,7.10
2019-04-23T21:55:54.484Z,5.43
2019-04-23T21:58:30.068Z,6.00
2019-04-23T22:00:58.654Z,4.73
2019-04-23T22:03:35.852Z,5.93
2019-04-23T22:05:55.631Z,5.63
2019-04-23T22:08:26.213Z,5.70
2019-04-23T22:11:10.601Z,5.00
2019-04-23T22:16:17.008Z,3.97
2019-04-23T22:18:34.352Z,3.53
2019-04-23T22:21:05.104Z,3.73
2019-04-23T22:23:42.472Z,4.00
2019-04-23T22:26:06.775Z,2.87
2019-04-23T22:28:43.449Z,3.97
2019-04-23T22:31:11.955Z,3.20
2019-04-23T22:33:37.377Z,3.23
2019-04-23T22:36:10.051Z,3.03
2019-04-23T22:38:37.649Z,2.33
2019-04-23T22:41:12.166Z,2.50
2019-04-23T22:43:43.296Z,3.57
2019-04-23T22:46:20.791Z,3.10
2019-04-23T22:48:48.712Z,2.90
2019-04-23T22:51:21.378Z,2.93
2019-04-23T22:53:51.810Z,2.50
2019-04-23T22:58:56.353Z,2.40
2019-04-23T23:04:00.134Z,2.30
2019-04-23T23:09:12.079Z,1.93
2019-04-23T23:11:27.193Z,1.83
2019-04-23T23:16:28.471Z,2.30
2019-04-23T23:19:07.451Z,1.83
2019-04-23T23:21:45.176Z,1.70
2019-04-23T23:24:13.643Z,2.63
2019-04-23T23:26:54.223Z,1.73
2019-04-23T23:29:02.286Z,2.00
2019-04-23T23:31:40.023Z,1.77
2019-04-23T23:34:10.136Z,1.90
2019-04-23T23:39:17.795Z,1.63
2019-04-23T23:41:40.472Z,1.60
2019-04-23T23:44:31.467Z,1.63
2019-04-23T23:46:50.688Z,1.40
2019-04-23T23:51:45.190Z,1.20
2019-04-23T23:56:50.635Z,1.30
